createdAt,value
2022-10-06T00:01:11.763Z,3.97
2022-10-06T00:03:39.712Z,2.50
2022-10-06T00:06:08.079Z,2.80
2022-10-06T00:08:37.744Z,4.30
2022-10-06T00:11:05.644Z,3.25
2022-10-06T00:13:33.418Z,2.08
2022-10-06T00:16:00.735Z,2.60
2022-10-06T00:18:29.966Z,4.97
2022-10-06T00:20:59.480Z,3.80
2022-10-06T00:23:28.753Z,5.72
2022-10-06T00:25:56.262Z,4.65
2022-10-06T00:28:23.483Z,2.13
2022-10-06T00:30:53.603Z,3.47
2022-10-06T00:33:21.044Z,3.80
2022-10-06T00:35:55.786Z,4.43
2022-10-06T00:38:23.195Z,5.88
2022-10-06T00:40:51.804Z,4.57
2022-10-06T00:43:40.648Z,3.03
2022-10-06T00:46:21.698Z,2.83
2022-10-06T00:48:55.783Z,4.75
2022-10-06T00:51:23.364Z,4.07
2022-10-06T00:53:51.085Z,6.88
2022-10-06T00:56:18.343Z,4.68
2022-10-06T00:58:45.473Z,3.90
2022-10-06T01:01:13.194Z,3.15
2022-10-06T01:03:46.674Z,4.07
2022-10-06T01:06:13.897Z,4.85
2022-10-06T01:08:41.218Z,4.13
2022-10-06T01:11:14.214Z,3.88
2022-10-06T01:13:45.439Z,4.65
2022-10-06T01:16:23.292Z,2.65
2022-10-06T01:18:53.354Z,3.53
2022-10-06T01:21:21.089Z,2.15
2022-10-06T01:23:49.955Z,3.70
2022-10-06T01:26:20.620Z,3.42
2022-10-06T01:28:48.322Z,3.53
2022-10-06T01:31:15.943Z,2.97
2022-10-06T01:33:43.980Z,2.38
2022-10-06T01:36:12.528Z,6.10
2022-10-06T01:38:39.562Z,6.57
2022-10-06T01:41:06.625Z,6.15
2022-10-06T01:43:35.539Z,3.58
2022-10-06T01:46:05.158Z,6.95
2022-10-06T01:48:34.908Z,3.97
2022-10-06T01:51:01.969Z,2.88
2022-10-06T01:53:30.522Z,2.90
2022-10-06T01:55:59.565Z,3.55
2022-10-06T01:58:28.599Z,2.80
2022-10-06T02:00:56.287Z,2.78
2022-10-06T02:03:23.351Z,2.90
2022-10-06T02:05:50.588Z,3.65
2022-10-06T02:08:19.889Z,2.80
2022-10-06T02:10:47.690Z,4.55
2022-10-06T02:13:25.433Z,4.82
2022-10-06T02:15:58.725Z,3.58
2022-10-06T02:18:27.071Z,2.80
2022-10-06T02:20:55.051Z,3.22
2022-10-06T02:23:22.108Z,4.13
2022-10-06T02:25:49.158Z,3.08
2022-10-06T02:28:17.896Z,6.32
2022-10-06T02:30:45.442Z,3.08
2022-10-06T02:33:12.867Z,4.05
2022-10-06T02:35:39.967Z,4.70
2022-10-06T02:38:07.213Z,3.33
2022-10-06T02:40:34.932Z,3.72
2022-10-06T02:43:02.413Z,6.35
2022-10-06T02:45:31.145Z,3.53
2022-10-06T02:47:58.178Z,4.35
2022-10-06T02:50:25.282Z,3.17
2022-10-06T02:52:52.409Z,3.90
2022-10-06T02:55:19.455Z,2.65
2022-10-06T02:57:46.579Z,3.30
2022-10-06T03:00:15.293Z,3.75
2022-10-06T03:02:42.530Z,3.83
2022-10-06T03:05:10.380Z,2.75
2022-10-06T03:07:37.518Z,3.80
2022-10-06T03:10:05.273Z,4.63
2022-10-06T03:12:33.416Z,3.38
2022-10-06T03:15:00.933Z,4.13
2022-10-06T03:17:28.154Z,5.68
2022-10-06T03:19:58.080Z,4.70
2022-10-06T03:22:25.956Z,5.82
2022-10-06T03:24:55.636Z,3.42
2022-10-06T03:27:22.945Z,3.45
2022-10-06T03:29:52.955Z,4.13
2022-10-06T03:32:24.162Z,2.88
2022-10-06T03:34:53.345Z,4.80
2022-10-06T03:37:20.863Z,5.40
2022-10-06T03:39:48.268Z,5.93
2022-10-06T03:42:16.065Z,5.72
2022-10-06T03:44:43.210Z,5.35
2022-10-06T03:47:14.636Z,5.90
2022-10-06T03:49:44.128Z,4.90
2022-10-06T03:52:12.638Z,12.00
2022-10-06T03:54:39.956Z,6.32
2022-10-06T03:57:07.011Z,5.10
2022-10-06T03:59:34.841Z,5.70
2022-10-06T04:02:05.540Z,4.68
2022-10-06T04:04:37.178Z,4.68
2022-10-06T04:07:09.320Z,8.77
2022-10-06T04:09:36.878Z,6.20
2022-10-06T04:12:04.358Z,5.82
2022-10-06T04:14:33.845Z,6.45
2022-10-06T04:17:01.683Z,6.72
2022-10-06T04:19:34.895Z,7.50
2022-10-06T04:22:03.547Z,6.60
2022-10-06T04:24:31.650Z,5.45
2022-10-06T04:27:18.635Z,7.53
2022-10-06T04:29:52.725Z,4.90
2022-10-06T04:32:20.585Z,4.47
2022-10-06T04:34:47.674Z,7.00
2022-10-06T04:37:15.297Z,6.80
2022-10-06T04:39:43.837Z,5.80
2022-10-06T04:42:10.900Z,17.73
2022-10-06T04:44:38.106Z,9.23
2022-10-06T04:47:06.847Z,5.30
2022-10-06T04:49:34.447Z,5.68
2022-10-06T04:52:02.256Z,7.88
2022-10-06T04:54:33.895Z,5.63
2022-10-06T04:57:08.544Z,7.03
2022-10-06T04:59:54.888Z,7.40
2022-10-06T05:02:23.091Z,6.38
2022-10-06T05:04:53.345Z,7.35
2022-10-06T05:07:22.789Z,8.23
2022-10-06T05:09:49.941Z,7.30
2022-10-06T05:12:18.173Z,7.25
2022-10-06T05:14:46.900Z,7.22
2022-10-06T05:17:14.536Z,7.72
2022-10-06T05:19:41.897Z,10.15
2022-10-06T05:22:09.068Z,13.95
2022-10-06T05:24:36.608Z,9.93
2022-10-06T05:27:04.451Z,17.17
2022-10-06T05:29:34.663Z,8.93
2022-10-06T05:32:03.025Z,12.43
2022-10-06T05:34:30.199Z,9.65
2022-10-06T05:36:57.343Z,8.80
2022-10-06T05:39:25.409Z,10.23
2022-10-06T05:41:56.436Z,9.52
2022-10-06T05:44:24.740Z,9.82
2022-10-06T05:46:51.874Z,10.25
2022-10-06T05:49:19.955Z,9.32
2022-10-06T05:51:53.179Z,8.88
2022-10-06T05:54:26.804Z,9.10
2022-10-06T05:56:53.952Z,9.95
2022-10-06T05:59:22.085Z,16.98
2022-10-06T06:01:49.928Z,8.57
2022-10-06T06:04:24.923Z,9.38
2022-10-06T06:06:55.523Z,9.00
2022-10-06T06:09:24.163Z,12.60
2022-10-06T06:11:54.255Z,8.07
2022-10-06T06:14:44.614Z,11.35
2022-10-06T06:17:16.588Z,8.32
2022-10-06T06:19:43.774Z,9.05
2022-10-06T06:22:11.028Z,9.30
2022-10-06T06:24:40.993Z,8.07
2022-10-06T06:27:09.311Z,8.32
2022-10-06T06:29:36.657Z,7.35
2022-10-06T06:32:03.833Z,7.35
2022-10-06T06:34:31.356Z,8.18
2022-10-06T06:37:03.640Z,10.77
2022-10-06T06:39:35.065Z,9.32
2022-10-06T06:42:02.358Z,7.72
2022-10-06T06:44:50.444Z,8.23
2022-10-06T06:47:43.505Z,9.65
2022-10-06T06:50:10.823Z,7.43
2022-10-06T06:52:41.953Z,8.43
2022-10-06T06:55:11.856Z,6.50
2022-10-06T06:57:38.988Z,8.30
2022-10-06T07:00:08.503Z,6.75
2022-10-06T07:02:38.124Z,10.98
2022-10-06T07:05:05.784Z,7.18
2022-10-06T07:07:51.742Z,9.43
2022-10-06T07:10:18.857Z,10.20
2022-10-06T07:12:46.357Z,8.52
2022-10-06T07:15:32.088Z,6.90
2022-10-06T07:18:21.650Z,7.53
2022-10-06T07:21:07.237Z,6.97
2022-10-06T07:24:06.789Z,8.63
2022-10-06T07:26:34.749Z,13.35
2022-10-06T07:29:02.351Z,10.10
2022-10-06T07:31:33.696Z,8.68
2022-10-06T07:34:02.562Z,10.05
2022-10-06T07:36:31.002Z,11.00
2022-10-06T07:38:58.343Z,7.63
2022-10-06T07:41:25.513Z,8.43
2022-10-06T07:43:55.815Z,14.02
2022-10-06T07:46:26.076Z,7.53
2022-10-06T07:51:45.366Z,9.80
2022-10-06T07:54:12.503Z,8.88
2022-10-06T07:56:47.128Z,10.48
2022-10-06T07:59:14.180Z,8.23
2022-10-06T08:01:41.339Z,8.13
2022-10-06T08:04:08.729Z,9.75
2022-10-06T08:06:35.950Z,9.70
2022-10-06T08:09:03.059Z,9.20
2022-10-06T08:11:30.320Z,8.93
2022-10-06T08:13:58.056Z,18.80
2022-10-06T08:16:30.471Z,8.65
2022-10-06T08:18:59.489Z,8.52
2022-10-06T08:21:31.926Z,8.55
2022-10-06T08:23:59.783Z,7.13
2022-10-06T08:26:28.331Z,7.40
2022-10-06T08:29:03.156Z,6.63
2022-10-06T08:31:31.928Z,7.03
2022-10-06T08:33:59.260Z,7.68
2022-10-06T08:36:31.536Z,8.07
2022-10-06T08:39:00.542Z,10.13
2022-10-06T08:41:32.273Z,7.00
2022-10-06T08:44:05.326Z,9.23
2022-10-06T08:46:40.750Z,6.68
2022-10-06T08:49:22.141Z,7.00
2022-10-06T08:51:58.298Z,6.93
2022-10-06T08:54:31.724Z,6.43
2022-10-06T08:57:18.245Z,9.57
2022-10-06T08:59:49.237Z,10.80
2022-10-06T09:02:39.015Z,12.25
2022-10-06T09:05:08.598Z,4.38
2022-10-06T09:07:52.396Z,6.10
2022-10-06T09:10:49.516Z,7.32
2022-10-06T09:13:21.752Z,8.90
2022-10-06T09:15:51.017Z,8.98
2022-10-06T09:21:50.823Z,4.88
2022-10-06T09:24:29.466Z,5.80
2022-10-06T09:26:58.520Z,8.90
2022-10-06T09:29:28.027Z,8.30
2022-10-06T09:31:55.110Z,7.18
2022-10-06T09:34:40.524Z,7.55
2022-10-06T09:37:11.576Z,7.40
2022-10-06T09:39:40.968Z,5.68
2022-10-06T09:42:10.779Z,5.65
2022-10-06T09:44:49.719Z,10.80
2022-10-06T09:47:28.877Z,8.20
2022-10-06T09:50:26.561Z,8.88
2022-10-06T09:53:05.541Z,6.55
2022-10-06T09:55:38.659Z,7.10
2022-10-06T09:58:22.928Z,8.18
2022-10-06T10:00:56.808Z,5.97
2022-10-06T10:03:31.370Z,7.32
2022-10-06T10:06:02.391Z,8.48
2022-10-06T10:08:32.818Z,6.80
2022-10-06T10:11:27.589Z,6.15
2022-10-06T10:13:57.887Z,5.93
2022-10-06T10:16:34.595Z,9.60
2022-10-06T10:19:05.760Z,10.50
2022-10-06T10:21:35.456Z,8.20
2022-10-06T10:24:06.799Z,7.93
2022-10-06T10:26:59.651Z,6.35
2022-10-06T10:29:45.699Z,6.85
2022-10-06T10:32:21.952Z,6.07
2022-10-06T10:35:19.689Z,9.75
2022-10-06T10:38:14.380Z,9.18
2022-10-06T10:40:49.144Z,10.93
2022-10-06T10:43:25.341Z,10.55
2022-10-06T10:45:56.626Z,9.55
2022-10-06T10:48:46.724Z,7.80
2022-10-06T10:51:19.000Z,9.40
2022-10-06T10:54:14.656Z,9.85
2022-10-06T10:56:44.085Z,9.82
2022-10-06T10:59:23.543Z,10.98
2022-10-06T11:01:57.585Z,16.80
2022-10-06T11:04:24.994Z,14.15
2022-10-06T11:07:15.388Z,7.75
2022-10-06T11:10:12.504Z,12.77
2022-10-06T11:13:03.064Z,17.20
2022-10-06T11:15:52.101Z,8.00
2022-10-06T11:18:41.444Z,12.50
2022-10-06T11:21:21.592Z,9.85
2022-10-06T11:24:03.084Z,16.33
2022-10-06T11:26:44.714Z,10.18
2022-10-06T11:29:49.089Z,14.27
2022-10-06T11:32:24.680Z,12.07
2022-10-06T11:34:52.580Z,10.43
2022-10-06T11:37:31.330Z,12.90
2022-10-06T11:40:28.133Z,14.40
2022-10-06T11:43:04.089Z,11.73
2022-10-06T11:45:44.477Z,12.88
2022-10-06T11:48:17.722Z,12.90
2022-10-06T11:50:49.105Z,9.82
2022-10-06T11:53:25.280Z,17.63
2022-10-06T11:56:16.813Z,11.60
2022-10-06T11:58:56.463Z,11.25
2022-10-06T12:01:36.348Z,12.85
2022-10-06T12:04:09.480Z,12.23
2022-10-06T12:06:48.730Z,15.93
2022-10-06T12:09:44.726Z,14.25
2022-10-06T12:12:14.747Z,11.85
2022-10-06T12:17:56.058Z,10.83
2022-10-06T12:20:47.124Z,14.55
2022-10-06T12:23:14.185Z,10.95
2022-10-06T12:25:58.676Z,16.65
2022-10-06T12:28:57.588Z,16.27
2022-10-06T12:31:45.468Z,15.20
2022-10-06T12:34:46.790Z,13.00
2022-10-06T12:37:29.125Z,15.10
2022-10-06T12:40:33.397Z,13.90
2022-10-06T12:43:12.551Z,15.93
2022-10-06T12:45:46.031Z,15.85
2022-10-06T12:48:24.477Z,15.38
2022-10-06T12:50:58.162Z,19.08
2022-10-06T12:53:32.902Z,14.90
2022-10-06T12:56:05.531Z,12.00
2022-10-06T12:58:34.104Z,13.95
2022-10-06T13:01:12.277Z,15.88
2022-10-06T13:03:39.857Z,14.02
2022-10-06T13:06:09.551Z,13.90
2022-10-06T13:08:38.690Z,22.80
2022-10-06T13:11:25.433Z,17.60
2022-10-06T13:13:55.051Z,11.65
2022-10-06T13:16:29.297Z,12.60
2022-10-06T13:18:58.582Z,15.15
2022-10-06T13:21:26.336Z,11.70
2022-10-06T13:23:53.497Z,15.80
2022-10-06T13:26:22.084Z,13.38
2022-10-06T13:28:51.943Z,9.82
2022-10-06T13:31:33.576Z,15.73
2022-10-06T13:34:13.122Z,13.05
2022-10-06T13:36:47.032Z,10.50
2022-10-06T13:39:22.787Z,10.82
2022-10-06T13:41:56.147Z,10.48
2022-10-06T13:44:26.213Z,13.48
2022-10-06T13:46:57.581Z,13.20
2022-10-06T13:49:30.675Z,14.40
2022-10-06T13:52:02.459Z,11.88
2022-10-06T13:54:54.160Z,13.20
2022-10-06T13:57:36.359Z,9.48
2022-10-06T14:00:17.657Z,15.48
2022-10-06T14:02:48.423Z,12.10
2022-10-06T14:05:26.503Z,9.98
2022-10-06T14:08:02.264Z,11.25
2022-10-06T14:10:48.157Z,11.35
2022-10-06T14:13:27.134Z,9.90
2022-10-06T14:15:54.316Z,12.48
2022-10-06T14:18:27.422Z,11.90
2022-10-06T14:20:57.250Z,11.05
2022-10-06T14:23:33.685Z,11.50
2022-10-06T14:26:01.421Z,12.63
2022-10-06T14:28:28.553Z,10.73
2022-10-06T14:30:57.547Z,11.80
2022-10-06T14:33:25.869Z,10.70
2022-10-06T14:35:53.213Z,19.25
2022-10-06T14:38:20.354Z,15.60
2022-10-06T14:40:47.458Z,14.05
2022-10-06T14:43:14.629Z,16.00
2022-10-06T14:45:43.447Z,11.40
2022-10-06T14:48:11.691Z,10.23
2022-10-06T14:50:39.200Z,11.30
2022-10-06T14:53:06.411Z,13.60
2022-10-06T14:55:33.772Z,12.45
2022-10-06T14:58:00.820Z,13.52
2022-10-06T15:00:29.099Z,10.60
2022-10-06T15:02:57.110Z,12.57
2022-10-06T15:05:24.574Z,11.68
2022-10-06T15:08:10.397Z,13.48
2022-10-06T15:10:39.062Z,10.38
2022-10-06T15:13:11.428Z,11.93
2022-10-06T15:15:40.094Z,16.25
2022-10-06T15:18:07.340Z,15.30
2022-10-06T15:20:34.448Z,10.82
2022-10-06T15:23:01.598Z,13.52
2022-10-06T15:25:47.270Z,13.60
2022-10-06T15:28:32.997Z,14.20
2022-10-06T15:31:01.768Z,15.82
2022-10-06T15:33:36.704Z,16.80
2022-10-06T15:36:25.830Z,13.52
2022-10-06T15:39:01.057Z,18.38
2022-10-06T15:41:28.235Z,14.10
2022-10-06T15:43:55.401Z,11.70
2022-10-06T15:46:55.490Z,13.77
2022-10-06T15:49:27.359Z,17.65
2022-10-06T15:51:57.033Z,14.73
2022-10-06T15:54:48.108Z,13.50
2022-10-06T15:57:35.656Z,14.60
2022-10-06T16:00:02.852Z,13.30
2022-10-06T16:02:40.159Z,14.27
2022-10-06T16:05:07.648Z,13.43
2022-10-06T16:07:35.240Z,15.80
2022-10-06T16:10:02.421Z,15.48
2022-10-06T16:12:30.525Z,16.08
2022-10-06T16:14:57.642Z,19.00
2022-10-06T16:17:24.813Z,14.80
2022-10-06T16:19:52.067Z,16.17
2022-10-06T16:22:20.033Z,16.40
2022-10-06T16:24:47.141Z,15.80
2022-10-06T16:27:15.470Z,14.85
2022-10-06T16:29:42.918Z,15.48
2022-10-06T16:32:10.962Z,18.88
2022-10-06T16:34:38.091Z,18.92
2022-10-06T16:37:05.242Z,15.23
2022-10-06T16:39:32.353Z,12.85
2022-10-06T16:41:59.513Z,16.27
2022-10-06T16:44:26.734Z,13.90
2022-10-06T16:46:53.861Z,16.75
2022-10-06T16:49:21.253Z,13.90
2022-10-06T16:51:48.498Z,14.98
2022-10-06T16:54:19.386Z,18.23
2022-10-06T16:56:54.043Z,15.25
2022-10-06T16:59:23.003Z,12.40
2022-10-06T17:01:51.009Z,17.35
2022-10-06T17:04:21.200Z,14.32
2022-10-06T17:06:53.535Z,14.05
2022-10-06T17:09:34.746Z,17.23
2022-10-06T17:12:13.378Z,20.98
2022-10-06T17:14:43.023Z,14.57
2022-10-06T17:17:13.235Z,20.00
2022-10-06T17:19:46.119Z,19.65
2022-10-06T17:22:32.763Z,12.75
2022-10-06T17:25:06.170Z,18.15
2022-10-06T17:27:36.074Z,16.38
2022-10-06T17:30:08.732Z,19.02
2022-10-06T17:32:36.085Z,18.75
2022-10-06T17:35:10.809Z,18.30
2022-10-06T17:37:40.426Z,22.52
2022-10-06T17:40:09.270Z,20.65
2022-10-06T17:42:37.619Z,22.10
2022-10-06T17:45:05.702Z,24.63
2022-10-06T17:47:32.907Z,16.60
2022-10-06T17:50:00.873Z,16.60
2022-10-06T17:52:28.053Z,19.10
2022-10-06T17:54:56.727Z,25.33
2022-10-06T17:57:23.950Z,18.48
2022-10-06T17:59:53.866Z,17.98
2022-10-06T18:02:22.574Z,17.80
2022-10-06T18:04:50.516Z,19.35
2022-10-06T18:07:31.031Z,19.27
2022-10-06T18:10:17.084Z,18.02
2022-10-06T18:12:44.540Z,18.25
2022-10-06T18:15:12.493Z,20.23
2022-10-06T18:17:45.306Z,24.02
2022-10-06T18:20:13.812Z,19.98
2022-10-06T18:22:44.062Z,25.35
2022-10-06T18:25:24.463Z,41.85
2022-10-06T18:27:56.618Z,53.00
2022-10-06T18:30:33.971Z,48.22
2022-10-06T18:36:11.700Z,50.72
2022-10-06T18:38:42.864Z,61.25
2022-10-06T18:41:19.044Z,60.03
2022-10-06T18:46:53.907Z,50.03
2022-10-06T18:49:23.412Z,51.80
2022-10-06T18:51:57.938Z,37.78
2022-10-06T18:54:27.666Z,45.72
2022-10-06T18:56:55.499Z,39.78
2022-10-06T18:59:27.478Z,32.65
2022-10-06T19:01:56.751Z,39.97
2022-10-06T19:04:24.578Z,35.30
2022-10-06T19:06:54.164Z,36.13
2022-10-06T19:09:25.462Z,34.03
2022-10-06T19:11:57.979Z,34.42
2022-10-06T19:14:37.020Z,28.45
2022-10-06T19:18:21.283Z,24.20
2022-10-06T19:20:52.504Z,23.75
2022-10-06T19:23:19.543Z,22.45
2022-10-06T19:25:48.130Z,24.48
2022-10-06T19:28:15.902Z,23.48
2022-10-06T19:30:43.209Z,20.70
2022-10-06T19:33:10.467Z,22.00
2022-10-06T19:35:37.676Z,19.95
2022-10-06T19:38:04.768Z,20.75
2022-10-06T19:40:32.002Z,24.48
2022-10-06T19:42:59.099Z,18.75
2022-10-06T19:45:26.181Z,17.17
2022-10-06T19:47:53.840Z,19.77
2022-10-06T19:50:21.516Z,16.48
2022-10-06T19:52:48.616Z,20.15
2022-10-06T19:55:15.867Z,16.45
2022-10-06T19:57:43.676Z,18.15
2022-10-06T20:00:16.598Z,17.52
2022-10-06T20:02:44.676Z,18.50
2022-10-06T20:05:16.181Z,17.33
2022-10-06T20:07:58.717Z,19.40
2022-10-06T20:10:36.185Z,14.38
2022-10-06T20:13:07.674Z,14.73
2022-10-06T20:15:37.396Z,16.38
2022-10-06T20:18:04.695Z,16.52
2022-10-06T20:20:32.129Z,18.77
2022-10-06T20:23:03.189Z,23.25
2022-10-06T20:25:31.196Z,20.60
2022-10-06T20:27:58.377Z,17.63
2022-10-06T20:30:25.523Z,16.98
2022-10-06T20:32:53.708Z,15.57
2022-10-06T20:35:20.781Z,15.88
2022-10-06T20:37:47.858Z,17.33
2022-10-06T20:40:36.642Z,16.00
2022-10-06T20:43:04.813Z,14.60
2022-10-06T20:45:32.111Z,16.88
2022-10-06T20:48:00.273Z,19.05
2022-10-06T20:50:30.377Z,19.73
2022-10-06T20:52:58.496Z,17.58
2022-10-06T20:55:26.422Z,18.83
2022-10-06T20:57:54.689Z,21.65
2022-10-06T21:00:24.692Z,16.63
2022-10-06T21:02:51.812Z,15.73
2022-10-06T21:05:19.214Z,17.15
2022-10-06T21:07:46.775Z,17.08
2022-10-06T21:10:14.017Z,20.52
2022-10-06T21:12:43.206Z,29.05
2022-10-06T21:15:10.443Z,16.92
2022-10-06T21:17:37.542Z,15.90
2022-10-06T21:20:05.154Z,20.42
2022-10-06T21:22:32.283Z,17.30
2022-10-06T21:24:59.458Z,14.68
2022-10-06T21:27:26.717Z,14.55
2022-10-06T21:29:53.805Z,16.80
2022-10-06T21:32:49.352Z,15.75
2022-10-06T21:35:25.883Z,15.38
2022-10-06T21:37:53.011Z,16.95
2022-10-06T21:40:22.211Z,16.02
2022-10-06T21:42:52.225Z,18.30
2022-10-06T21:45:23.121Z,11.52
2022-10-06T21:48:01.722Z,19.90
2022-10-06T21:50:28.813Z,13.07
2022-10-06T21:52:58.469Z,15.25
2022-10-06T21:55:28.012Z,13.52
2022-10-06T21:57:55.149Z,13.93
2022-10-06T22:00:22.527Z,16.88
2022-10-06T22:02:49.753Z,18.70
2022-10-06T22:05:23.134Z,15.70
2022-10-06T22:07:58.022Z,15.38
2022-10-06T22:10:25.177Z,15.25
2022-10-06T22:13:00.750Z,14.93
2022-10-06T22:15:27.755Z,13.02
2022-10-06T22:17:59.116Z,18.48
2022-10-06T22:20:32.122Z,11.48
2022-10-06T22:23:04.861Z,13.07
2022-10-06T22:25:34.637Z,11.45
2022-10-06T22:28:03.856Z,12.95
2022-10-06T22:30:33.468Z,10.20
2022-10-06T22:33:00.536Z,12.15
2022-10-06T22:35:35.074Z,11.20
2022-10-06T22:38:04.691Z,10.68
2022-10-06T22:40:34.705Z,11.52
2022-10-06T22:43:09.274Z,17.67
2022-10-06T22:45:36.494Z,15.05
2022-10-06T22:48:06.902Z,9.85
2022-10-06T22:50:33.974Z,9.38
2022-10-06T22:53:01.095Z,12.55
2022-10-06T22:55:28.158Z,11.70
2022-10-06T22:57:55.262Z,17.02
2022-10-06T23:00:25.552Z,14.40
2022-10-06T23:02:54.860Z,11.18
2022-10-06T23:05:24.290Z,13.32
2022-10-06T23:07:51.523Z,14.20
2022-10-06T23:10:30.467Z,13.25
2022-10-06T23:13:07.178Z,13.20
2022-10-06T23:15:34.249Z,15.63
2022-10-06T23:18:04.255Z,9.95
2022-10-06T23:20:33.666Z,20.95
2022-10-06T23:23:03.535Z,13.68
2022-10-06T23:25:30.637Z,10.07
2022-10-06T23:27:57.786Z,11.50
2022-10-06T23:30:32.906Z,11.13
2022-10-06T23:33:02.329Z,9.65
2022-10-06T23:35:32.283Z,13.45
2022-10-06T23:37:59.393Z,11.68
2022-10-06T23:40:26.662Z,11.43
2022-10-06T23:42:53.810Z,11.95
2022-10-06T23:45:23.662Z,10.00
2022-10-06T23:47:50.755Z,13.13
2022-10-06T23:50:18.085Z,13.88
2022-10-06T23:52:45.169Z,10.02
2022-10-06T23:55:12.231Z,9.50
2022-10-06T23:57:39.480Z,8.38
